Terminal Aerodrome Forecast
Issued by NWS La Crosse, WI

Home | Current Version | Previous Version | Text Only | Print | Product List | Glossary On
Versions: 1 2 3 4 5 6 7 8 9 10 11 12 13 14 15 16 17 18 19 20 21 22 23 24 25 26 27 28 29 30 31 32 33 34 35 36 37 38 39 40 41 42 43 44 45 46 47 48 49 50
000
FTUS43 KARX 191120
TAFLSE
TAF
KLSE 191120Z 1912/2012 16008KT 2SM BR OVC006
      TEMPO 1912/1914 1/2SM FG
     FM191700 16006KT 5SM BR OVC012
     FM200100 13004KT 4SM -RA BR OVC010
     FM200900 12003KT 2SM -RA BR OVC008=

USA.gov is the U.S. government's official web portal to all federal, state and local government web resources and services.